sensor_id;sensor_type;location;lat;lon;timestamp;temperature;humidity
67054;SHT31;53960;51.826;5.850;2022-07-29T00:02:20;17.90;62.82
67054;SHT31;53960;51.826;5.850;2022-07-29T00:04:46;17.84;63.27
67054;SHT31;53960;51.826;5.850;2022-07-29T00:07:11;17.90;63.17
67054;SHT31;53960;51.826;5.850;2022-07-29T00:09:36;17.87;63.17
67054;SHT31;53960;51.826;5.850;2022-07-29T00:12:02;17.88;63.22
67054;SHT31;53960;51.826;5.850;2022-07-29T00:14:28;17.83;63.50
67054;SHT31;53960;51.826;5.850;2022-07-29T00:16:53;17.81;63.58
67054;SHT31;53960;51.826;5.850;2022-07-29T00:19:19;17.75;63.80
67054;SHT31;53960;51.826;5.850;2022-07-29T00:21:44;17.81;63.51
67054;SHT31;53960;51.826;5.850;2022-07-29T00:24:09;17.81;63.55
67054;SHT31;53960;51.826;5.850;2022-07-29T00:26:35;17.80;63.61
67054;SHT31;53960;51.826;5.850;2022-07-29T00:29:02;17.78;63.69
67054;SHT31;53960;51.826;5.850;2022-07-29T00:31:27;17.81;63.63
67054;SHT31;53960;51.826;5.850;2022-07-29T00:33:53;17.77;63.54
67054;SHT31;53960;51.826;5.850;2022-07-29T00:36:19;17.71;63.98
67054;SHT31;53960;51.826;5.850;2022-07-29T00:38:47;17.70;64.02
67054;SHT31;53960;51.826;5.850;2022-07-29T00:41:12;17.74;63.95
67054;SHT31;53960;51.826;5.850;2022-07-29T00:43:37;17.69;64.28
67054;SHT31;53960;51.826;5.850;2022-07-29T00:46:03;17.66;64.39
67054;SHT31;53960;51.826;5.850;2022-07-29T00:48:28;17.64;64.45
67054;SHT31;53960;51.826;5.850;2022-07-29T00:50:56;17.66;64.53
67054;SHT31;53960;51.826;5.850;2022-07-29T00:53:23;17.77;64.18
67054;SHT31;53960;51.826;5.850;2022-07-29T00:55:48;17.73;64.30
67054;SHT31;53960;51.826;5.850;2022-07-29T00:58:14;17.73;64.40
67054;SHT31;53960;51.826;5.850;2022-07-29T01:00:39;17.69;64.49
67054;SHT31;53960;51.826;5.850;2022-07-29T01:03:06;17.57;65.11
67054;SHT31;53960;51.826;5.850;2022-07-29T01:05:32;17.59;65.10
67054;SHT31;53960;51.826;5.850;2022-07-29T01:07:58;17.62;64.82
67054;SHT31;53960;51.826;5.850;2022-07-29T01:10:24;17.66;64.86
67054;SHT31;53960;51.826;5.850;2022-07-29T01:12:52;17.63;64.81
67054;SHT31;53960;51.826;5.850;2022-07-29T01:15:19;17.62;64.86
67054;SHT31;53960;51.826;5.850;2022-07-29T01:18:05;17.57;65.11
67054;SHT31;53960;51.826;5.850;2022-07-29T01:28:47;17.39;66.03
67054;SHT31;53960;51.826;5.850;2022-07-29T01:31:22;17.43;65.83
67054;SHT31;53960;51.826;5.850;2022-07-29T01:33:57;17.37;66.24
67054;SHT31;53960;51.826;5.850;2022-07-29T01:36:30;17.32;66.73
67054;SHT31;53960;51.826;5.850;2022-07-29T01:39:08;17.29;66.58
67054;SHT31;53960;51.826;5.850;2022-07-29T01:41:38;17.37;66.19
67054;SHT31;53960;51.826;5.850;2022-07-29T01:44:12;17.43;66.17
67054;SHT31;53960;51.826;5.850;2022-07-29T01:46:44;17.43;65.93
67054;SHT31;53960;51.826;5.850;2022-07-29T01:49:21;17.34;67.05
67054;SHT31;53960;51.826;5.850;2022-07-29T01:51:50;17.27;66.70
67054;SHT31;53960;51.826;5.850;2022-07-29T01:54:41;17.32;67.13
67054;SHT31;53960;51.826;5.850;2022-07-29T01:57:09;17.40;68.37
67054;SHT31;53960;51.826;5.850;2022-07-29T01:59:37;17.40;68.95
67054;SHT31;53960;51.826;5.850;2022-07-29T02:02:04;17.42;70.31
67054;SHT31;53960;51.826;5.850;2022-07-29T02:04:32;17.19;72.40
67054;SHT31;53960;51.826;5.850;2022-07-29T02:07:02;16.98;75.40
67054;SHT31;53960;51.826;5.850;2022-07-29T02:09:29;16.76;75.19
67054;SHT31;53960;51.826;5.850;2022-07-29T02:11:55;16.67;76.92
67054;SHT31;53960;51.826;5.850;2022-07-29T02:14:22;16.60;78.28
67054;SHT31;53960;51.826;5.850;2022-07-29T02:16:50;16.57;80.55
67054;SHT31;53960;51.826;5.850;2022-07-29T02:19:17;16.38;81.32
67054;SHT31;53960;51.826;5.850;2022-07-29T02:21:44;16.34;80.28
67054;SHT31;53960;51.826;5.850;2022-07-29T02:24:11;16.26;81.74
67054;SHT31;53960;51.826;5.850;2022-07-29T02:26:39;16.37;81.34
67054;SHT31;53960;51.826;5.850;2022-07-29T02:29:06;16.45;80.13
67054;SHT31;53960;51.826;5.850;2022-07-29T02:31:34;16.44;79.94
67054;SHT31;53960;51.826;5.850;2022-07-29T02:34:03;16.18;81.16
67054;SHT31;53960;51.826;5.850;2022-07-29T02:36:29;16.09;81.55
67054;SHT31;53960;51.826;5.850;2022-07-29T02:38:56;16.21;80.84
67054;SHT31;53960;51.826;5.850;2022-07-29T02:41:50;16.27;80.86
67054;SHT31;53960;51.826;5.850;2022-07-29T02:44:18;16.30;80.24
67054;SHT31;53960;51.826;5.850;2022-07-29T02:47:10;16.07;81.57
67054;SHT31;53960;51.826;5.850;2022-07-29T02:52:26;16.17;80.20
67054;SHT31;53960;51.826;5.850;2022-07-29T02:54:58;16.03;80.79
67054;SHT31;53960;51.826;5.850;2022-07-29T02:57:41;15.97;80.98
67054;SHT31;53960;51.826;5.850;2022-07-29T03:00:08;15.75;81.42
67054;SHT31;53960;51.826;5.850;2022-07-29T03:02:37;15.66;82.52
67054;SHT31;53960;51.826;5.850;2022-07-29T03:05:04;15.68;82.26
67054;SHT31;53960;51.826;5.850;2022-07-29T03:07:32;15.70;81.50
67054;SHT31;53960;51.826;5.850;2022-07-29T03:09:58;15.62;83.43
67054;SHT31;53960;51.826;5.850;2022-07-29T03:12:25;15.62;81.55
67054;SHT31;53960;51.826;5.850;2022-07-29T03:14:51;15.68;81.69
67054;SHT31;53960;51.826;5.850;2022-07-29T03:17:16;15.62;82.45
67054;SHT31;53960;51.826;5.850;2022-07-29T03:19:42;15.68;82.18
67054;SHT31;53960;51.826;5.850;2022-07-29T03:22:07;15.68;82.45
67054;SHT31;53960;51.826;5.850;2022-07-29T03:24:35;15.61;81.98
67054;SHT31;53960;51.826;5.850;2022-07-29T03:27:01;15.73;81.39
67054;SHT31;53960;51.826;5.850;2022-07-29T03:29:27;15.65;81.77
67054;SHT31;53960;51.826;5.850;2022-07-29T03:31:53;15.55;82.51
67054;SHT31;53960;51.826;5.850;2022-07-29T03:34:18;15.42;82.59
67054;SHT31;53960;51.826;5.850;2022-07-29T03:36:44;15.49;82.57
67054;SHT31;53960;51.826;5.850;2022-07-29T03:39:10;15.45;82.39
67054;SHT31;53960;51.826;5.850;2022-07-29T03:41:38;15.27;82.53
67054;SHT31;53960;51.826;5.850;2022-07-29T03:44:05;15.39;82.02
67054;SHT31;53960;51.826;5.850;2022-07-29T03:46:33;15.45;82.03
67054;SHT31;53960;51.826;5.850;2022-07-29T03:49:02;15.54;81.32
67054;SHT31;53960;51.826;5.850;2022-07-29T03:51:29;15.47;82.16
67054;SHT31;53960;51.826;5.850;2022-07-29T03:53:54;15.42;83.09
67054;SHT31;53960;51.826;5.850;2022-07-29T03:56:23;15.32;84.05
67054;SHT31;53960;51.826;5.850;2022-07-29T03:58:52;15.27;84.32
67054;SHT31;53960;51.826;5.850;2022-07-29T04:01:19;15.32;84.06
67054;SHT31;53960;51.826;5.850;2022-07-29T04:03:45;15.44;82.09
67054;SHT31;53960;51.826;5.850;2022-07-29T04:06:11;15.55;81.84
67054;SHT31;53960;51.826;5.850;2022-07-29T04:08:36;15.52;81.77
67054;SHT31;53960;51.826;5.850;2022-07-29T04:11:02;15.54;81.89
67054;SHT31;53960;51.826;5.850;2022-07-29T04:13:28;15.51;81.64
67054;SHT31;53960;51.826;5.850;2022-07-29T04:15:54;15.48;81.68
67054;SHT31;53960;51.826;5.850;2022-07-29T04:18:19;15.51;81.63
67054;SHT31;53960;51.826;5.850;2022-07-29T04:20:45;15.41;83.16
67054;SHT31;53960;51.826;5.850;2022-07-29T04:23:10;15.35;83.50
67054;SHT31;53960;51.826;5.850;2022-07-29T04:25:39;15.42;83.36
67054;SHT31;53960;51.826;5.850;2022-07-29T04:28:06;15.47;82.58
67054;SHT31;53960;51.826;5.850;2022-07-29T04:30:32;15.52;81.78
67054;SHT31;53960;51.826;5.850;2022-07-29T04:33:02;15.52;81.66
67054;SHT31;53960;51.826;5.850;2022-07-29T04:35:33;15.47;81.70
67054;SHT31;53960;51.826;5.850;2022-07-29T04:37:59;15.44;81.37
67054;SHT31;53960;51.826;5.850;2022-07-29T04:40:24;15.38;81.20
67054;SHT31;53960;51.826;5.850;2022-07-29T04:42:49;15.34;82.45
67054;SHT31;53960;51.826;5.850;2022-07-29T04:45:15;15.35;81.98
67054;SHT31;53960;51.826;5.850;2022-07-29T04:47:40;15.37;81.31
67054;SHT31;53960;51.826;5.850;2022-07-29T04:50:08;15.35;81.91
67054;SHT31;53960;51.826;5.850;2022-07-29T04:52:33;15.37;81.83
67054;SHT31;53960;51.826;5.850;2022-07-29T04:55:00;15.44;81.67
67054;SHT31;53960;51.826;5.850;2022-07-29T04:57:25;15.41;81.99
67054;SHT31;53960;51.826;5.850;2022-07-29T04:59:50;15.39;82.20
67054;SHT31;53960;51.826;5.850;2022-07-29T05:02:16;15.34;84.12
67054;SHT31;53960;51.826;5.850;2022-07-29T05:04:41;15.41;82.30
67054;SHT31;53960;51.826;5.850;2022-07-29T05:07:06;15.41;82.33
67054;SHT31;53960;51.826;5.850;2022-07-29T05:09:31;15.38;83.12
67054;SHT31;53960;51.826;5.850;2022-07-29T05:11:57;15.42;82.24
67054;SHT31;53960;51.826;5.850;2022-07-29T05:14:22;15.44;83.28
67054;SHT31;53960;51.826;5.850;2022-07-29T05:16:48;15.35;82.48
67054;SHT31;53960;51.826;5.850;2022-07-29T05:19:16;15.49;81.88
67054;SHT31;53960;51.826;5.850;2022-07-29T05:21:41;15.54;81.33
67054;SHT31;53960;51.826;5.850;2022-07-29T05:24:07;15.45;81.33
67054;SHT31;53960;51.826;5.850;2022-07-29T05:26:32;15.47;81.46
67054;SHT31;53960;51.826;5.850;2022-07-29T05:28:58;15.56;80.20
67054;SHT31;53960;51.826;5.850;2022-07-29T05:31:23;15.48;80.18
67054;SHT31;53960;51.826;5.850;2022-07-29T05:33:48;15.48;80.15
67054;SHT31;53960;51.826;5.850;2022-07-29T05:36:14;15.55;79.66
67054;SHT31;53960;51.826;5.850;2022-07-29T05:38:39;15.59;78.78
67054;SHT31;53960;51.826;5.850;2022-07-29T05:41:05;15.51;79.26
67054;SHT31;53960;51.826;5.850;2022-07-29T05:43:30;15.51;79.49
67054;SHT31;53960;51.826;5.850;2022-07-29T05:45:56;15.51;79.39
67054;SHT31;53960;51.826;5.850;2022-07-29T05:48:21;15.47;79.87
67054;SHT31;53960;51.826;5.850;2022-07-29T05:50:47;15.52;79.78
67054;SHT31;53960;51.826;5.850;2022-07-29T05:53:12;15.49;80.50
67054;SHT31;53960;51.826;5.850;2022-07-29T05:55:37;15.56;80.01
67054;SHT31;53960;51.826;5.850;2022-07-29T05:58:02;15.65;79.46
67054;SHT31;53960;51.826;5.850;2022-07-29T06:00:28;15.61;80.52
67054;SHT31;53960;51.826;5.850;2022-07-29T06:02:53;15.66;79.90
67054;SHT31;53960;51.826;5.850;2022-07-29T06:05:18;15.76;79.57
67054;SHT31;53960;51.826;5.850;2022-07-29T06:07:44;15.78;79.64
67054;SHT31;53960;51.826;5.850;2022-07-29T06:10:09;15.76;79.94
67054;SHT31;53960;51.826;5.850;2022-07-29T06:12:35;15.75;79.73
67054;SHT31;53960;51.826;5.850;2022-07-29T06:15:00;15.81;78.73
67054;SHT31;53960;51.826;5.850;2022-07-29T06:17:26;15.87;79.04
67054;SHT31;53960;51.826;5.850;2022-07-29T06:19:51;15.87;78.86
67054;SHT31;53960;51.826;5.850;2022-07-29T06:22:16;15.93;78.57
67054;SHT31;53960;51.826;5.850;2022-07-29T06:24:42;15.97;78.03
67054;SHT31;53960;51.826;5.850;2022-07-29T06:27:10;15.93;78.86
67054;SHT31;53960;51.826;5.850;2022-07-29T06:29:35;15.97;79.01
67054;SHT31;53960;51.826;5.850;2022-07-29T06:32:00;15.97;78.92
67054;SHT31;53960;51.826;5.850;2022-07-29T06:34:27;16.12;78.02
67054;SHT31;53960;51.826;5.850;2022-07-29T06:36:52;16.17;77.38
67054;SHT31;53960;51.826;5.850;2022-07-29T06:39:18;16.24;77.43
67054;SHT31;53960;51.826;5.850;2022-07-29T06:41:46;16.27;77.53
67054;SHT31;53960;51.826;5.850;2022-07-29T06:44:12;16.23;78.40
67054;SHT31;53960;51.826;5.850;2022-07-29T06:46:37;16.28;77.54
67054;SHT31;53960;51.826;5.850;2022-07-29T06:49:03;16.21;77.36
67054;SHT31;53960;51.826;5.850;2022-07-29T06:51:29;16.33;76.33
67054;SHT31;53960;51.826;5.850;2022-07-29T06:53:54;16.30;76.81
67054;SHT31;53960;51.826;5.850;2022-07-29T06:56:20;16.34;76.41
67054;SHT31;53960;51.826;5.850;2022-07-29T06:58:45;16.38;76.68
67054;SHT31;53960;51.826;5.850;2022-07-29T07:01:11;16.41;77.08
67054;SHT31;53960;51.826;5.850;2022-07-29T07:03:36;16.48;76.91
67054;SHT31;53960;51.826;5.850;2022-07-29T07:06:02;16.64;75.90
67054;SHT31;53960;51.826;5.850;2022-07-29T07:08:28;16.69;75.23
67054;SHT31;53960;51.826;5.850;2022-07-29T07:10:53;16.67;74.71
67054;SHT31;53960;51.826;5.850;2022-07-29T07:13:20;16.71;74.72
67054;SHT31;53960;51.826;5.850;2022-07-29T07:15:46;16.71;74.32
67054;SHT31;53960;51.826;5.850;2022-07-29T07:18:14;16.75;73.95
67054;SHT31;53960;51.826;5.850;2022-07-29T07:20:39;16.81;73.28
67054;SHT31;53960;51.826;5.850;2022-07-29T07:23:04;16.78;73.60
67054;SHT31;53960;51.826;5.850;2022-07-29T07:25:30;16.75;74.31
67054;SHT31;53960;51.826;5.850;2022-07-29T07:27:55;16.76;74.42
67054;SHT31;53960;51.826;5.850;2022-07-29T07:30:21;16.69;74.60
67054;SHT31;53960;51.826;5.850;2022-07-29T07:32:46;16.75;75.46
67054;SHT31;53960;51.826;5.850;2022-07-29T07:35:12;16.72;75.10
67054;SHT31;53960;51.826;5.850;2022-07-29T07:37:38;16.81;75.09
67054;SHT31;53960;51.826;5.850;2022-07-29T07:40:06;16.96;74.87
67054;SHT31;53960;51.826;5.850;2022-07-29T07:42:31;17.01;73.93
67054;SHT31;53960;51.826;5.850;2022-07-29T07:44:56;17.11;73.59
67054;SHT31;53960;51.826;5.850;2022-07-29T07:47:22;17.16;73.26
67054;SHT31;53960;51.826;5.850;2022-07-29T07:49:49;17.18;73.98
67054;SHT31;53960;51.826;5.850;2022-07-29T07:52:16;17.15;74.11
67054;SHT31;53960;51.826;5.850;2022-07-29T07:54:42;17.16;74.76
67054;SHT31;53960;51.826;5.850;2022-07-29T07:57:08;17.19;73.86
67054;SHT31;53960;51.826;5.850;2022-07-29T07:59:33;17.22;73.53
67054;SHT31;53960;51.826;5.850;2022-07-29T08:01:59;17.19;73.33
67054;SHT31;53960;51.826;5.850;2022-07-29T08:04:25;17.25;73.07
67054;SHT31;53960;51.826;5.850;2022-07-29T08:06:50;17.29;71.70
67054;SHT31;53960;51.826;5.850;2022-07-29T08:09:15;17.30;72.03
67054;SHT31;53960;51.826;5.850;2022-07-29T08:11:41;17.23;72.73
67054;SHT31;53960;51.826;5.850;2022-07-29T08:14:06;17.15;71.40
67054;SHT31;53960;51.826;5.850;2022-07-29T08:16:31;17.25;72.65
67054;SHT31;53960;51.826;5.850;2022-07-29T08:18:57;17.27;71.31
67054;SHT31;53960;51.826;5.850;2022-07-29T08:21:23;17.29;71.65
67054;SHT31;53960;51.826;5.850;2022-07-29T08:23:50;17.32;71.70
67054;SHT31;53960;51.826;5.850;2022-07-29T08:26:18;17.37;72.80
67054;SHT31;53960;51.826;5.850;2022-07-29T08:28:45;17.47;71.67
67054;SHT31;53960;51.826;5.850;2022-07-29T08:31:12;17.56;71.62
67054;SHT31;53960;51.826;5.850;2022-07-29T08:33:38;17.51;71.94
67054;SHT31;53960;51.826;5.850;2022-07-29T08:36:03;17.63;71.30
67054;SHT31;53960;51.826;5.850;2022-07-29T08:38:28;17.62;71.99
67054;SHT31;53960;51.826;5.850;2022-07-29T08:40:54;17.67;71.47
67054;SHT31;53960;51.826;5.850;2022-07-29T08:43:19;17.66;71.97
67054;SHT31;53960;51.826;5.850;2022-07-29T08:45:47;17.67;71.29
67054;SHT31;53960;51.826;5.850;2022-07-29T08:48:18;17.64;72.16
67054;SHT31;53960;51.826;5.850;2022-07-29T08:50:44;17.71;72.60
67054;SHT31;53960;51.826;5.850;2022-07-29T08:53:11;17.78;72.51
67054;SHT31;53960;51.826;5.850;2022-07-29T08:55:42;17.77;72.08
67054;SHT31;53960;51.826;5.850;2022-07-29T08:58:08;17.88;71.77
67054;SHT31;53960;51.826;5.850;2022-07-29T09:00:36;17.90;72.27
67054;SHT31;53960;51.826;5.850;2022-07-29T09:03:04;18.00;71.31
67054;SHT31;53960;51.826;5.850;2022-07-29T09:05:31;17.93;72.10
67054;SHT31;53960;51.826;5.850;2022-07-29T09:07:57;17.93;71.65
67054;SHT31;53960;51.826;5.850;2022-07-29T09:10:22;17.95;71.81
67054;SHT31;53960;51.826;5.850;2022-07-29T09:12:48;18.01;71.72
67054;SHT31;53960;51.826;5.850;2022-07-29T09:15:14;18.11;72.73
67054;SHT31;53960;51.826;5.850;2022-07-29T09:17:48;18.22;71.46
67054;SHT31;53960;51.826;5.850;2022-07-29T09:20:16;18.36;72.20
67054;SHT31;53960;51.826;5.850;2022-07-29T09:22:42;18.45;71.90
67054;SHT31;53960;51.826;5.850;2022-07-29T09:25:08;18.35;71.51
67054;SHT31;53960;51.826;5.850;2022-07-29T09:27:33;18.53;71.55
67054;SHT31;53960;51.826;5.850;2022-07-29T09:32:28;18.82;69.93
67054;SHT31;53960;51.826;5.850;2022-07-29T09:35:23;18.80;70.22
67054;SHT31;53960;51.826;5.850;2022-07-29T09:37:49;18.93;69.92
67054;SHT31;53960;51.826;5.850;2022-07-29T09:40:37;18.96;69.47
67054;SHT31;53960;51.826;5.850;2022-07-29T09:43:12;19.08;69.03
67054;SHT31;53960;51.826;5.850;2022-07-29T09:45:38;19.14;70.14
67054;SHT31;53960;51.826;5.850;2022-07-29T09:48:15;19.32;69.78
67054;SHT31;53960;51.826;5.850;2022-07-29T09:50:43;19.57;69.22
67054;SHT31;53960;51.826;5.850;2022-07-29T09:53:09;19.65;68.21
67054;SHT31;53960;51.826;5.850;2022-07-29T09:55:51;19.83;69.26
67054;SHT31;53960;51.826;5.850;2022-07-29T10:00:42;19.99;67.77
67054;SHT31;53960;51.826;5.850;2022-07-29T10:03:08;19.97;67.18
67054;SHT31;53960;51.826;5.850;2022-07-29T10:05:34;20.09;67.40
67054;SHT31;53960;51.826;5.850;2022-07-29T10:07:59;20.21;67.53
67054;SHT31;53960;51.826;5.850;2022-07-29T10:10:33;20.36;67.77
67054;SHT31;53960;51.826;5.850;2022-07-29T10:13:04;20.58;66.89
67054;SHT31;53960;51.826;5.850;2022-07-29T10:15:31;20.47;64.51
67054;SHT31;53960;51.826;5.850;2022-07-29T10:18:03;20.41;66.66
67054;SHT31;53960;51.826;5.850;2022-07-29T10:20:29;20.58;66.59
67054;SHT31;53960;51.826;5.850;2022-07-29T10:22:55;20.64;65.67
67054;SHT31;53960;51.826;5.850;2022-07-29T10:25:21;20.85;64.61
67054;SHT31;53960;51.826;5.850;2022-07-29T10:27:48;20.95;63.92
67054;SHT31;53960;51.826;5.850;2022-07-29T10:30:15;21.05;64.38
67054;SHT31;53960;51.826;5.850;2022-07-29T10:35:31;21.28;62.55
67054;SHT31;53960;51.826;5.850;2022-07-29T10:43:53;21.25;61.92
67054;SHT31;53960;51.826;5.850;2022-07-29T10:46:19;21.19;61.02
67054;SHT31;53960;51.826;5.850;2022-07-29T10:49:04;21.20;62.57
67054;SHT31;53960;51.826;5.850;2022-07-29T10:51:59;21.42;62.63
67054;SHT31;53960;51.826;5.850;2022-07-29T10:54:46;21.71;61.59
67054;SHT31;53960;51.826;5.850;2022-07-29T10:57:30;21.78;60.13
67054;SHT31;53960;51.826;5.850;2022-07-29T11:05:14;21.70;61.52
67054;SHT31;53960;51.826;5.850;2022-07-29T11:10:44;22.08;58.63
67054;SHT31;53960;51.826;5.850;2022-07-29T11:13:09;22.17;59.24
67054;SHT31;53960;51.826;5.850;2022-07-29T11:15:56;22.14;59.50
67054;SHT31;53960;51.826;5.850;2022-07-29T11:18:22;22.28;58.89
67054;SHT31;53960;51.826;5.850;2022-07-29T11:20:49;22.21;59.12
67054;SHT31;53960;51.826;5.850;2022-07-29T11:23:33;22.21;57.86
67054;SHT31;53960;51.826;5.850;2022-07-29T11:26:20;22.39;58.50
67054;SHT31;53960;51.826;5.850;2022-07-29T11:29:20;22.45;57.20
67054;SHT31;53960;51.826;5.850;2022-07-29T11:31:49;22.66;58.26
67054;SHT31;53960;51.826;5.850;2022-07-29T11:34:31;22.76;56.38
67054;SHT31;53960;51.826;5.850;2022-07-29T11:39:31;22.80;57.70
67054;SHT31;53960;51.826;5.850;2022-07-29T11:47:26;22.94;56.34
67054;SHT31;53960;51.826;5.850;2022-07-29T11:49:53;22.96;56.83
67054;SHT31;53960;51.826;5.850;2022-07-29T11:52:19;23.15;58.95
67054;SHT31;53960;51.826;5.850;2022-07-29T11:54:48;23.31;57.45
67054;SHT31;53960;51.826;5.850;2022-07-29T11:57:16;23.24;54.06
67054;SHT31;53960;51.826;5.850;2022-07-29T11:59:43;23.18;55.41
67054;SHT31;53960;51.826;5.850;2022-07-29T12:02:08;23.06;55.22
67054;SHT31;53960;51.826;5.850;2022-07-29T12:04:48;23.34;56.37
67054;SHT31;53960;51.826;5.850;2022-07-29T12:07:14;23.24;56.50
67054;SHT31;53960;51.826;5.850;2022-07-29T12:09:39;23.37;55.88
67054;SHT31;53960;51.826;5.850;2022-07-29T12:12:05;23.41;54.38
67054;SHT31;53960;51.826;5.850;2022-07-29T12:14:32;23.44;55.63
67054;SHT31;53960;51.826;5.850;2022-07-29T12:16:59;23.38;54.75
67054;SHT31;53960;51.826;5.850;2022-07-29T12:19:26;23.51;55.22
67054;SHT31;53960;51.826;5.850;2022-07-29T12:21:56;23.34;54.17
67054;SHT31;53960;51.826;5.850;2022-07-29T12:24:23;23.54;55.74
67054;SHT31;53960;51.826;5.850;2022-07-29T12:26:54;23.78;54.63
67054;SHT31;53960;51.826;5.850;2022-07-29T12:29:19;23.78;54.16
67054;SHT31;53960;51.826;5.850;2022-07-29T12:31:45;23.75;53.81
67054;SHT31;53960;51.826;5.850;2022-07-29T12:34:15;23.66;53.79
67054;SHT31;53960;51.826;5.850;2022-07-29T12:36:41;23.57;53.95
67054;SHT31;53960;51.826;5.850;2022-07-29T12:39:08;23.61;54.82
67054;SHT31;53960;51.826;5.850;2022-07-29T12:41:34;23.41;55.81
67054;SHT31;53960;51.826;5.850;2022-07-29T12:43:59;23.20;54.37
67054;SHT31;53960;51.826;5.850;2022-07-29T12:46:25;23.27;55.08
67054;SHT31;53960;51.826;5.850;2022-07-29T12:48:52;23.51;55.15
67054;SHT31;53960;51.826;5.850;2022-07-29T12:51:31;23.59;54.19
67054;SHT31;53960;51.826;5.850;2022-07-29T12:54:09;23.65;53.51
67054;SHT31;53960;51.826;5.850;2022-07-29T12:56:39;23.75;54.23
67054;SHT31;53960;51.826;5.850;2022-07-29T12:59:19;23.76;53.79
67054;SHT31;53960;51.826;5.850;2022-07-29T13:01:46;23.71;51.61
67054;SHT31;53960;51.826;5.850;2022-07-29T13:04:27;23.69;52.20
67054;SHT31;53960;51.826;5.850;2022-07-29T13:07:23;23.64;52.97
67054;SHT31;53960;51.826;5.850;2022-07-29T13:09:48;23.75;53.01
67054;SHT31;53960;51.826;5.850;2022-07-29T13:12:14;23.85;52.09
67054;SHT31;53960;51.826;5.850;2022-07-29T13:14:43;23.83;52.42
67054;SHT31;53960;51.826;5.850;2022-07-29T13:17:11;23.69;52.63
67054;SHT31;53960;51.826;5.850;2022-07-29T13:19:45;24.02;52.90
67054;SHT31;53960;51.826;5.850;2022-07-29T13:22:15;24.13;51.99
67054;SHT31;53960;51.826;5.850;2022-07-29T13:24:50;24.03;52.27
67054;SHT31;53960;51.826;5.850;2022-07-29T13:27:17;24.05;51.30
67054;SHT31;53960;51.826;5.850;2022-07-29T13:29:43;23.98;51.66
67054;SHT31;53960;51.826;5.850;2022-07-29T13:32:08;24.20;51.81
67054;SHT31;53960;51.826;5.850;2022-07-29T13:34:33;24.23;51.22
67054;SHT31;53960;51.826;5.850;2022-07-29T13:36:59;24.46;49.92
67054;SHT31;53960;51.826;5.850;2022-07-29T13:39:24;24.36;50.70
67054;SHT31;53960;51.826;5.850;2022-07-29T13:41:49;24.16;51.46
67054;SHT31;53960;51.826;5.850;2022-07-29T13:44:15;23.93;51.86
67054;SHT31;53960;51.826;5.850;2022-07-29T13:46:40;24.06;52.32
67054;SHT31;53960;51.826;5.850;2022-07-29T13:49:05;24.01;51.92
67054;SHT31;53960;51.826;5.850;2022-07-29T13:51:31;24.37;52.56
67054;SHT31;53960;51.826;5.850;2022-07-29T13:53:56;24.56;49.65
67054;SHT31;53960;51.826;5.850;2022-07-29T13:56:21;24.77;48.98
67054;SHT31;53960;51.826;5.850;2022-07-29T13:58:47;24.87;49.15
67054;SHT31;53960;51.826;5.850;2022-07-29T14:01:12;24.92;48.97
67054;SHT31;53960;51.826;5.850;2022-07-29T14:03:37;24.96;51.07
67054;SHT31;53960;51.826;5.850;2022-07-29T14:06:06;24.95;48.20
67054;SHT31;53960;51.826;5.850;2022-07-29T14:08:31;25.05;48.70
67054;SHT31;53960;51.826;5.850;2022-07-29T14:10:57;24.59;47.99
67054;SHT31;53960;51.826;5.850;2022-07-29T14:13:22;24.77;48.27
67054;SHT31;53960;51.826;5.850;2022-07-29T14:15:47;25.02;48.06
67054;SHT31;53960;51.826;5.850;2022-07-29T14:18:13;25.18;47.27
67054;SHT31;53960;51.826;5.850;2022-07-29T14:20:38;25.02;46.89
67054;SHT31;53960;51.826;5.850;2022-07-29T14:23:03;25.21;47.54
67054;SHT31;53960;51.826;5.850;2022-07-29T14:25:29;25.29;47.43
67054;SHT31;53960;51.826;5.850;2022-07-29T14:27:54;25.29;47.22
67054;SHT31;53960;51.826;5.850;2022-07-29T14:30:20;25.04;47.69
67054;SHT31;53960;51.826;5.850;2022-07-29T14:32:45;25.16;47.74
67054;SHT31;53960;51.826;5.850;2022-07-29T14:35:11;25.26;48.11
67054;SHT31;53960;51.826;5.850;2022-07-29T14:37:36;25.43;47.84
67054;SHT31;53960;51.826;5.850;2022-07-29T14:40:02;25.53;47.08
67054;SHT31;53960;51.826;5.850;2022-07-29T14:42:29;25.66;46.69
67054;SHT31;53960;51.826;5.850;2022-07-29T14:44:56;25.59;46.77
67054;SHT31;53960;51.826;5.850;2022-07-29T14:47:22;25.65;47.05
67054;SHT31;53960;51.826;5.850;2022-07-29T14:49:48;25.54;46.73
67054;SHT31;53960;51.826;5.850;2022-07-29T14:52:16;25.35;46.86
67054;SHT31;53960;51.826;5.850;2022-07-29T14:54:41;25.11;47.12
67054;SHT31;53960;51.826;5.850;2022-07-29T14:57:07;25.39;47.42
67054;SHT31;53960;51.826;5.850;2022-07-29T14:59:32;25.58;46.23
67054;SHT31;53960;51.826;5.850;2022-07-29T15:01:58;25.38;47.38
67054;SHT31;53960;51.826;5.850;2022-07-29T15:04:23;25.12;47.72
67054;SHT31;53960;51.826;5.850;2022-07-29T15:06:48;24.95;47.96
67054;SHT31;53960;51.826;5.850;2022-07-29T15:09:14;25.15;47.65
67054;SHT31;53960;51.826;5.850;2022-07-29T15:11:39;25.12;47.47
67054;SHT31;53960;51.826;5.850;2022-07-29T15:14:05;25.36;49.42
67054;SHT31;53960;51.826;5.850;2022-07-29T15:16:31;25.39;48.40
67054;SHT31;53960;51.826;5.850;2022-07-29T15:18:56;25.19;47.56
67054;SHT31;53960;51.826;5.850;2022-07-29T15:21:23;24.91;48.23
67054;SHT31;53960;51.826;5.850;2022-07-29T15:23:48;24.92;48.26
67054;SHT31;53960;51.826;5.850;2022-07-29T15:26:14;24.87;48.22
67054;SHT31;53960;51.826;5.850;2022-07-29T15:28:39;24.88;48.50
67054;SHT31;53960;51.826;5.850;2022-07-29T15:31:05;24.96;48.46
67054;SHT31;53960;51.826;5.850;2022-07-29T15:33:30;25.16;48.03
67054;SHT31;53960;51.826;5.850;2022-07-29T15:35:56;25.23;47.77
67054;SHT31;53960;51.826;5.850;2022-07-29T15:38:21;25.58;47.90
67054;SHT31;53960;51.826;5.850;2022-07-29T15:40:46;25.77;47.67
67054;SHT31;53960;51.826;5.850;2022-07-29T15:43:12;25.81;46.73
67054;SHT31;53960;51.826;5.850;2022-07-29T15:45:39;25.83;47.45
67054;SHT31;53960;51.826;5.850;2022-07-29T15:48:05;25.98;48.23
67054;SHT31;53960;51.826;5.850;2022-07-29T15:50:31;26.10;47.32
67054;SHT31;53960;51.826;5.850;2022-07-29T15:52:57;26.18;47.50
67054;SHT31;53960;51.826;5.850;2022-07-29T15:55:22;26.14;46.78
67054;SHT31;53960;51.826;5.850;2022-07-29T15:57:48;26.13;46.66
67054;SHT31;53960;51.826;5.850;2022-07-29T16:00:14;26.14;46.50
67054;SHT31;53960;51.826;5.850;2022-07-29T16:02:41;26.13;46.78
67054;SHT31;53960;51.826;5.850;2022-07-29T16:05:06;26.14;46.96
67054;SHT31;53960;51.826;5.850;2022-07-29T16:07:32;26.10;46.07
67054;SHT31;53960;51.826;5.850;2022-07-29T16:09:57;26.02;45.48
67054;SHT31;53960;51.826;5.850;2022-07-29T16:12:23;26.08;46.86
67054;SHT31;53960;51.826;5.850;2022-07-29T16:14:48;26.16;46.70